createdAt,value
2022-10-03T00:04:10.953Z,0
2022-10-03T00:09:33.593Z,0
2022-10-03T00:15:19.118Z,0
2022-10-03T00:20:41.456Z,0
2022-10-03T00:26:03.992Z,0
2022-10-03T00:31:26.361Z,0
2022-10-03T00:36:49.104Z,0
2022-10-03T00:42:11.821Z,0
2022-10-03T00:47:34.220Z,0
2022-10-03T00:52:58.980Z,0
2022-10-03T00:58:21.743Z,0
2022-10-03T01:03:44.353Z,0
2022-10-03T01:09:07.204Z,0
2022-10-03T01:14:29.733Z,0
2022-10-03T01:19:52.340Z,0
2022-10-03T01:25:17.116Z,0
2022-10-03T01:30:39.584Z,0
2022-10-03T01:36:02.137Z,0
2022-10-03T01:41:24.698Z,0
2022-10-03T01:46:47.264Z,0
2022-10-03T01:57:55.381Z,0
2022-10-03T02:03:18.456Z,0
2022-10-03T02:09:18.556Z,0
2022-10-03T02:15:17.826Z,0
2022-10-03T02:20:40.714Z,0
2022-10-03T02:26:03.418Z,0
2022-10-03T02:31:25.853Z,0
2022-10-03T02:36:51.344Z,0
2022-10-03T02:42:16.922Z,0
2022-10-03T02:47:39.218Z,0
2022-10-03T02:53:01.787Z,0
2022-10-03T02:58:24.233Z,0
2022-10-03T03:14:52.508Z,0
2022-10-03T03:20:14.839Z,0
2022-10-03T03:25:37.314Z,0
2022-10-03T03:31:02.485Z,0
2022-10-03T03:36:28.194Z,0
2022-10-03T03:41:59.893Z,0
2022-10-03T03:47:22.531Z,0
2022-10-03T03:52:45.244Z,0
2022-10-03T03:58:07.891Z,0
2022-10-03T04:03:31.146Z,0
2022-10-03T04:08:53.977Z,0
2022-10-03T04:14:16.669Z,0
2022-10-03T04:19:42.595Z,0
2022-10-03T04:25:05.338Z,0
2022-10-03T04:30:27.679Z,0
2022-10-03T04:35:57.687Z,0
2022-10-03T04:41:19.815Z,0
2022-10-03T04:46:45.400Z,0
2022-10-03T04:52:11.021Z,0
2022-10-03T04:57:50.792Z,0
2022-10-03T05:03:13.401Z,0
2022-10-03T05:08:36.023Z,0
2022-10-03T05:13:58.628Z,0
2022-10-03T05:19:21.606Z,0
2022-10-03T05:24:43.843Z,0
2022-10-03T05:30:06.369Z,0
2022-10-03T05:35:28.845Z,0
2022-10-03T05:40:51.524Z,0
2022-10-03T05:46:14.004Z,0
2022-10-03T05:51:37.142Z,0.1
2022-10-03T05:57:00.816Z,0.1
2022-10-03T06:02:23.455Z,0.1
2022-10-03T06:08:24.519Z,0.2
2022-10-03T06:13:47.135Z,0.2
2022-10-03T06:19:10.543Z,0.2
2022-10-03T06:24:32.881Z,0.2
2022-10-03T06:29:55.252Z,0.3
2022-10-03T06:35:17.872Z,0.3
2022-10-03T06:40:40.643Z,0.4
2022-10-03T06:46:03.633Z,0.6
2022-10-03T06:51:30.456Z,0.5
2022-10-03T06:56:53.239Z,0.5
2022-10-03T07:07:38.510Z,0.7
2022-10-03T07:13:00.924Z,0.7
2022-10-03T07:18:32.647Z,0.8
2022-10-03T07:23:55.603Z,1.1
2022-10-03T07:29:21.214Z,0.9
2022-10-03T07:34:44.286Z,1
2022-10-03T07:40:06.926Z,1
2022-10-03T07:50:40.760Z,1.1
2022-10-03T07:56:07.332Z,1
2022-10-03T08:01:35.471Z,2.4
2022-10-03T08:06:58.232Z,1.5
2022-10-03T08:12:23.852Z,1.4
2022-10-03T08:17:46.369Z,1.3
2022-10-03T08:23:15.031Z,0.9
2022-10-03T08:28:40.026Z,2.6
2022-10-03T08:34:05.843Z,2.4
2022-10-03T08:39:30.166Z,4.9
2022-10-03T08:44:52.732Z,1.2
2022-10-03T08:55:36.790Z,3.9
2022-10-03T09:01:00.352Z,3.3
2022-10-03T09:06:23.114Z,3.9
2022-10-03T09:11:48.220Z,4.6
2022-10-03T09:17:09.900Z,5.3
2022-10-03T09:22:33.588Z,5.6
2022-10-03T09:27:56.560Z,5.5
2022-10-03T09:33:19.752Z,5.9
2022-10-03T09:38:42.654Z,5.3
2022-10-03T09:44:06.581Z,5.4
2022-10-03T09:49:30.366Z,6
2022-10-03T09:54:51.388Z,3.6
2022-10-03T10:00:14.706Z,1
2022-10-03T10:05:42.374Z,1.3
2022-10-03T10:11:05.114Z,4.9
2022-10-03T10:21:36.140Z,7
2022-10-03T10:26:58.572Z,2.9
2022-10-03T10:32:21.663Z,4.7
2022-10-03T10:37:46.587Z,4.3
2022-10-03T10:43:15.593Z,4.3
2022-10-03T10:48:37.482Z,1.9
2022-10-03T10:53:59.559Z,1.1
2022-10-03T10:59:20.017Z,0.7
2022-10-03T11:04:41.711Z,0.8
2022-10-03T11:10:04.217Z,0.8
2022-10-03T11:15:26.762Z,0.8
2022-10-03T11:20:51.211Z,3.7
2022-10-03T11:26:17.878Z,5
2022-10-03T11:31:41.681Z,6.1
2022-10-03T11:37:07.386Z,1.7
2022-10-03T11:42:31.957Z,1.6
2022-10-03T11:47:53.057Z,1.3
2022-10-03T11:53:15.324Z,6.6
2022-10-03T11:58:40.982Z,2.9
2022-10-03T12:04:02.740Z,4.8
2022-10-03T12:09:25.629Z,4.5
2022-10-03T12:14:47.001Z,1.5
2022-10-03T12:20:08.644Z,1.1
2022-10-03T12:25:34.331Z,6
2022-10-03T12:30:59.626Z,4.9
2022-10-03T12:36:24.714Z,5.7
2022-10-03T12:42:06.428Z,6.1
2022-10-03T12:47:50.864Z,6.2
2022-10-03T12:53:19.781Z,4.3
2022-10-03T12:58:42.372Z,3.5
2022-10-03T13:04:05.622Z,4.7
2022-10-03T13:09:28.651Z,4
2022-10-03T13:14:51.489Z,5.2
2022-10-03T13:20:14.288Z,3.2
2022-10-03T13:25:43.877Z,2.8
2022-10-03T13:31:06.863Z,3.6
2022-10-03T13:36:30.175Z,3.2
2022-10-03T13:41:53.335Z,2.8
2022-10-03T13:47:15.929Z,2.5
2022-10-03T13:52:38.475Z,1.7
2022-10-03T13:58:00.340Z,1.4
2022-10-03T14:03:22.882Z,4.3
2022-10-03T14:08:51.094Z,2.6
2022-10-03T14:14:22.887Z,1.8
2022-10-03T14:19:45.400Z,1.8
2022-10-03T14:25:09.229Z,3.7
2022-10-03T14:30:34.862Z,2.1
2022-10-03T14:35:56.015Z,0.6
2022-10-03T14:41:18.337Z,0.9
2022-10-03T14:46:40.862Z,1.2
2022-10-03T14:52:03.675Z,1.1
2022-10-03T14:57:26.236Z,1
2022-10-03T15:02:48.767Z,0.9
2022-10-03T15:08:17.383Z,0.9
2022-10-03T15:13:39.934Z,0.9
2022-10-03T15:19:23.395Z,0.8
2022-10-03T15:24:46.441Z,0.7
2022-10-03T15:30:09.235Z,0.6
2022-10-03T15:35:32.103Z,0.6
2022-10-03T15:40:54.402Z,0.5
2022-10-03T15:46:16.937Z,0.4
2022-10-03T15:51:40.391Z,0.4
2022-10-03T15:57:04.782Z,0.4
2022-10-03T16:02:27.731Z,0.4
2022-10-03T16:07:51.087Z,0.4
2022-10-03T16:13:13.921Z,0.3
2022-10-03T16:18:37.304Z,0.2
2022-10-03T16:24:03.243Z,0.2
2022-10-03T16:29:33.563Z,0.2
2022-10-03T16:34:56.810Z,0.2
2022-10-03T16:40:31.185Z,0.1
2022-10-03T16:45:53.787Z,0.1
2022-10-03T16:51:16.501Z,0.1
2022-10-03T16:56:56.580Z,0.1
2022-10-03T17:02:19.116Z,0
2022-10-03T17:07:41.912Z,0
2022-10-03T17:13:04.389Z,0
2022-10-03T17:18:26.799Z,0
2022-10-03T17:24:06.807Z,0
2022-10-03T17:29:29.571Z,0
2022-10-03T17:34:52.133Z,0
2022-10-03T17:40:14.750Z,0
2022-10-03T17:45:37.364Z,0
2022-10-03T17:51:00.326Z,0
2022-10-03T18:01:53.918Z,0
2022-10-03T18:07:17.026Z,0
2022-10-03T18:12:39.623Z,0
2022-10-03T18:18:02.321Z,0
2022-10-03T18:23:43.342Z,0
2022-10-03T18:29:19.092Z,0
2022-10-03T18:34:41.588Z,0
2022-10-03T18:40:04.103Z,0
2022-10-03T18:45:26.787Z,0
2022-10-03T18:50:49.414Z,0
2022-10-03T18:56:12.118Z,0
2022-10-03T19:01:34.808Z,0
2022-10-03T19:06:58.028Z,0
2022-10-03T19:12:20.473Z,0
2022-10-03T19:17:46.351Z,0
2022-10-03T19:23:11.848Z,0
2022-10-03T19:28:34.269Z,0
2022-10-03T19:33:57.320Z,0
2022-10-03T19:39:20.013Z,0
2022-10-03T19:44:42.652Z,0
2022-10-03T19:50:05.287Z,0
2022-10-03T19:55:27.984Z,0
2022-10-03T20:00:50.741Z,0
2022-10-03T20:06:13.564Z,0
2022-10-03T20:11:36.047Z,0
2022-10-03T20:16:58.493Z,0
2022-10-03T20:27:49.768Z,0
2022-10-03T20:33:12.588Z,0
2022-10-03T20:38:35.094Z,0
2022-10-03T20:43:57.386Z,0
2022-10-03T20:49:22.366Z,0
2022-10-03T21:00:07.114Z,0
2022-10-03T21:05:29.449Z,0
2022-10-03T21:11:01.240Z,0
2022-10-03T21:16:24.115Z,0
2022-10-03T21:21:47.621Z,0
2022-10-03T21:27:11.480Z,0
2022-10-03T21:32:33.890Z,0
2022-10-03T21:37:56.350Z,0
2022-10-03T21:43:18.889Z,0
2022-10-03T21:48:41.374Z,0
2022-10-03T21:54:04.445Z,0
2022-10-03T21:59:27.125Z,0
2022-10-03T22:04:49.524Z,0
2022-10-03T22:10:12.538Z,0
2022-10-03T22:15:35.028Z,0
2022-10-03T22:20:57.494Z,0
2022-10-03T22:26:19.969Z,0
2022-10-03T22:31:43.265Z,0
2022-10-03T22:37:06.894Z,0
2022-10-03T22:47:51.520Z,0
2022-10-03T22:53:14.017Z,0
2022-10-03T22:58:36.455Z,0
2022-10-03T23:03:58.657Z,0
2022-10-03T23:09:21.401Z,0
2022-10-03T23:14:43.927Z,0
2022-10-03T23:20:06.661Z,0
2022-10-03T23:25:28.977Z,0
2022-10-03T23:30:51.342Z,0
2022-10-03T23:36:13.914Z,0
2022-10-03T23:41:36.563Z,0
2022-10-03T23:46:59.547Z,0
2022-10-03T23:52:21.921Z,0
2022-10-03T23:57:44.324Z,0
